createdAt,value
2022-10-30T00:02:09.242Z,100.00
2022-10-30T00:07:10.950Z,100.00
2022-10-30T00:12:12.523Z,100.00
2022-10-30T00:17:14.108Z,100.00
2022-10-30T00:22:15.673Z,100.00
2022-10-30T00:27:17.283Z,100.00
2022-10-30T00:32:18.868Z,100.00
2022-10-30T00:37:20.484Z,100.00
2022-10-30T00:42:22.077Z,100.00
2022-10-30T00:47:28.082Z,100.00
2022-10-30T00:52:34.050Z,100.00
2022-10-30T00:57:37.081Z,100.00
2022-10-30T01:02:41.549Z,100.00
2022-10-30T01:07:43.166Z,100.00
2022-10-30T01:12:47.125Z,100.00
2022-10-30T01:18:14.914Z,100.00
2022-10-30T01:23:35.239Z,100.00
2022-10-30T01:28:55.716Z,100.00
2022-10-30T01:34:18.900Z,100.00
2022-10-30T01:39:25.404Z,100.00
2022-10-30T01:44:31.645Z,100.00
2022-10-30T01:50:01.364Z,100.00
2022-10-30T01:55:13.548Z,100.00
2022-10-30T02:00:17.369Z,100.00
2022-10-30T02:05:41.496Z,100.00
2022-10-30T02:10:45.744Z,100.00
2022-10-30T02:15:48.823Z,100.00
2022-10-30T02:20:50.562Z,100.00
2022-10-30T02:25:52.122Z,100.00
2022-10-30T02:30:53.695Z,100.00
2022-10-30T02:35:55.252Z,100.00
2022-10-30T02:40:58.478Z,100.00
2022-10-30T02:46:00.245Z,100.00
2022-10-30T02:51:03.465Z,100.00
2022-10-30T02:56:07.632Z,100.00
2022-10-30T03:01:17.931Z,100.00
2022-10-30T03:06:19.659Z,100.00
2022-10-30T03:11:21.225Z,100.00
2022-10-30T03:16:25.128Z,100.00
2022-10-30T03:21:27.950Z,100.00
2022-10-30T03:26:29.753Z,100.00
2022-10-30T03:31:38.343Z,100.00
2022-10-30T03:36:47.855Z,100.00
2022-10-30T03:41:49.515Z,100.00
2022-10-30T03:46:52.354Z,100.00
2022-10-30T03:52:07.399Z,100.00
2022-10-30T03:57:08.932Z,100.00
2022-10-30T04:02:23.088Z,100.00
2022-10-30T04:07:24.772Z,100.00
2022-10-30T04:12:26.417Z,100.00
2022-10-30T04:17:28.257Z,100.00
2022-10-30T04:22:31.883Z,100.00
2022-10-30T04:27:42.426Z,100.00
2022-10-30T04:32:52.375Z,100.00
2022-10-30T04:37:59.722Z,100.00
2022-10-30T04:43:03.045Z,100.00
2022-10-30T04:48:17.217Z,100.00
2022-10-30T04:53:19.385Z,100.00
2022-10-30T04:58:23.306Z,100.00
2022-10-30T05:03:35.837Z,100.00
2022-10-30T05:08:42.481Z,100.00
2022-10-30T05:13:54.274Z,100.00
2022-10-30T05:18:55.836Z,100.00
2022-10-30T05:23:57.358Z,100.00
2022-10-30T05:28:59.958Z,100.00
2022-10-30T05:34:04.592Z,100.00
2022-10-30T05:39:09.331Z,100.00
2022-10-30T05:44:13.782Z,100.00
2022-10-30T05:49:18.113Z,100.00
2022-10-30T05:54:20.004Z,100.00
2022-10-30T05:59:44.144Z,100.00
2022-10-30T06:04:45.685Z,100.00
2022-10-30T06:09:48.624Z,100.00
2022-10-30T06:15:22.869Z,100.00
2022-10-30T06:20:27.347Z,100.00
2022-10-30T06:25:55.210Z,100.00
2022-10-30T06:31:01.336Z,100.00
2022-10-30T06:36:05.397Z,100.00
2022-10-30T06:41:07.734Z,100.00
2022-10-30T06:46:41.377Z,100.00
2022-10-30T06:51:43.900Z,100.00
2022-10-30T06:56:50.052Z,100.00
2022-10-30T07:02:19.776Z,100.00
2022-10-30T07:07:31.474Z,100.00
2022-10-30T07:12:33.627Z,100.00
2022-10-30T07:17:52.178Z,100.00
2022-10-30T07:22:57.010Z,100.00
2022-10-30T07:27:59.427Z,100.00
2022-10-30T07:33:10.883Z,100.00
2022-10-30T07:38:30.664Z,100.00
2022-10-30T07:43:41.889Z,100.00
2022-10-30T07:49:05.298Z,100.00
2022-10-30T07:54:16.486Z,100.00
2022-10-30T07:59:18.168Z,100.00
2022-10-30T08:04:35.431Z,100.00
2022-10-30T08:09:51.999Z,100.00
2022-10-30T08:14:54.390Z,100.00
2022-10-30T08:19:57.182Z,100.00
2022-10-30T08:24:58.919Z,100.00
2022-10-30T08:30:04.540Z,100.00
2022-10-30T08:35:07.323Z,100.00
2022-10-30T08:40:10.800Z,100.00
2022-10-30T08:45:18.760Z,100.00
2022-10-30T08:50:41.317Z,100.00
2022-10-30T08:55:43.349Z,100.00
2022-10-30T09:00:57.206Z,100.00
2022-10-30T09:06:20.252Z,100.00
2022-10-30T09:11:44.443Z,100.00
2022-10-30T09:16:46.145Z,100.00
2022-10-30T09:21:50.253Z,100.00
2022-10-30T09:26:51.975Z,100.00
2022-10-30T09:32:01.815Z,100.00
2022-10-30T09:37:05.786Z,100.00
2022-10-30T09:42:37.667Z,100.00
2022-10-30T09:48:03.526Z,100.00
2022-10-30T09:53:26.012Z,100.00
2022-10-30T09:59:00.878Z,100.00
2022-10-30T10:04:26.473Z,100.00
2022-10-30T10:10:00.817Z,100.00
2022-10-30T10:15:34.812Z,100.00
2022-10-30T10:20:43.664Z,100.00
2022-10-30T10:25:53.450Z,100.00
2022-10-30T10:31:11.193Z,100.00
2022-10-30T10:36:24.969Z,100.00
2022-10-30T10:41:26.508Z,100.00
2022-10-30T10:46:46.756Z,99.40
2022-10-30T10:52:07.172Z,97.55
2022-10-30T10:57:17.104Z,96.38
2022-10-30T11:02:38.175Z,95.28
2022-10-30T11:07:47.438Z,94.29
2022-10-30T11:12:49.441Z,93.38
2022-10-30T11:17:59.946Z,91.91
2022-10-30T11:23:01.845Z,91.52
2022-10-30T11:28:05.683Z,90.34
2022-10-30T11:33:23.117Z,88.22
2022-10-30T11:38:26.967Z,87.82
2022-10-30T11:43:28.880Z,86.89
2022-10-30T11:48:33.233Z,86.53
2022-10-30T11:53:40.136Z,85.74
2022-10-30T11:58:46.007Z,85.68
2022-10-30T12:03:48.064Z,84.97
2022-10-30T12:09:12.684Z,84.28
2022-10-30T12:14:20.516Z,84.79
2022-10-30T12:19:24.791Z,83.68
2022-10-30T12:24:43.523Z,82.86
2022-10-30T12:30:20.027Z,82.87
2022-10-30T12:35:40.943Z,82.89
2022-10-30T12:40:52.401Z,82.88
2022-10-30T12:46:35.983Z,82.17
2022-10-30T12:51:49.701Z,82.12
2022-10-30T12:57:09.366Z,81.96
2022-10-30T13:02:20.085Z,82.04
2022-10-30T13:07:41.848Z,81.72
2022-10-30T13:12:48.453Z,81.51
2022-10-30T13:17:50.898Z,81.63
2022-10-30T13:23:05.967Z,81.30
2022-10-30T13:28:39.804Z,80.70
2022-10-30T13:33:53.420Z,80.26
2022-10-30T13:39:28.700Z,79.81
2022-10-30T13:45:01.774Z,80.50
2022-10-30T13:50:17.697Z,80.37
2022-10-30T13:55:22.727Z,80.60
2022-10-30T14:00:30.008Z,80.34
2022-10-30T14:05:50.702Z,80.97
2022-10-30T14:11:00.324Z,80.91
2022-10-30T14:16:06.560Z,80.78
2022-10-30T14:21:30.007Z,80.59
2022-10-30T14:26:31.752Z,81.41
2022-10-30T14:31:36.034Z,81.70
2022-10-30T14:36:43.728Z,81.84
2022-10-30T14:42:06.038Z,82.24
2022-10-30T14:47:39.427Z,82.27
2022-10-30T14:52:52.983Z,82.33
2022-10-30T14:58:03.523Z,83.08
2022-10-30T15:03:26.520Z,83.92
2022-10-30T15:08:43.263Z,84.62
2022-10-30T15:13:52.959Z,85.62
2022-10-30T15:19:02.769Z,86.94
2022-10-30T15:24:04.730Z,87.27
2022-10-30T15:29:07.583Z,87.85
2022-10-30T15:34:22.764Z,90.07
2022-10-30T15:39:24.973Z,91.49
2022-10-30T15:44:40.055Z,93.68
2022-10-30T15:49:57.951Z,95.09
2022-10-30T15:55:08.708Z,97.07
2022-10-30T16:00:30.459Z,98.48
2022-10-30T16:05:32.657Z,99.62
2022-10-30T16:10:35.647Z,100.00
2022-10-30T16:15:39.926Z,100.00
2022-10-30T16:20:44.798Z,100.00
2022-10-30T16:25:47.678Z,100.00
2022-10-30T16:30:49.949Z,100.00
2022-10-30T16:35:55.555Z,100.00
2022-10-30T16:40:58.063Z,100.00
2022-10-30T16:46:14.899Z,100.00
2022-10-30T16:51:18.158Z,100.00
2022-10-30T16:56:23.853Z,100.00
2022-10-30T17:01:29.118Z,100.00
2022-10-30T17:06:43.172Z,100.00
2022-10-30T17:12:00.119Z,100.00
2022-10-30T17:17:01.699Z,100.00
2022-10-30T17:22:09.932Z,100.00
2022-10-30T17:27:29.821Z,100.00
2022-10-30T17:32:45.043Z,100.00
2022-10-30T17:37:46.617Z,100.00
2022-10-30T17:42:49.360Z,100.00
2022-10-30T17:47:50.886Z,100.00
2022-10-30T17:52:52.498Z,100.00
2022-10-30T17:57:54.066Z,100.00
2022-10-30T18:02:55.687Z,100.00
2022-10-30T18:07:57.305Z,100.00
2022-10-30T18:12:59.427Z,100.00
2022-10-30T18:18:02.765Z,100.00
2022-10-30T18:23:12.785Z,100.00
2022-10-30T18:28:22.030Z,100.00
2022-10-30T18:33:23.800Z,100.00
2022-10-30T18:38:25.500Z,100.00
2022-10-30T18:43:27.047Z,100.00
2022-10-30T18:48:28.594Z,100.00
2022-10-30T18:53:34.985Z,100.00
2022-10-30T18:58:36.879Z,100.00
2022-10-30T19:03:38.450Z,100.00
2022-10-30T19:08:40.085Z,100.00
2022-10-30T19:13:41.745Z,100.00
2022-10-30T19:18:45.057Z,100.00
2022-10-30T19:23:46.700Z,100.00
2022-10-30T19:28:48.309Z,100.00
2022-10-30T19:33:54.626Z,100.00
2022-10-30T19:39:02.891Z,100.00
2022-10-30T19:44:09.086Z,100.00
2022-10-30T19:49:18.788Z,100.00
2022-10-30T19:54:20.313Z,100.00
2022-10-30T19:59:21.814Z,100.00
2022-10-30T20:04:23.330Z,100.00
2022-10-30T20:09:24.862Z,100.00
2022-10-30T20:14:27.973Z,100.00
2022-10-30T20:19:31.047Z,100.00
2022-10-30T20:24:33.971Z,100.00
2022-10-30T20:29:36.826Z,100.00
2022-10-30T20:34:38.359Z,100.00
2022-10-30T20:39:41.993Z,100.00
2022-10-30T20:44:43.495Z,100.00
2022-10-30T20:49:45.105Z,100.00
2022-10-30T20:54:46.709Z,100.00
2022-10-30T20:59:51.984Z,100.00
2022-10-30T21:04:53.547Z,100.00
2022-10-30T21:09:55.118Z,100.00
2022-10-30T21:14:56.639Z,100.00
2022-10-30T21:19:58.240Z,100.00
2022-10-30T21:24:59.756Z,100.00
2022-10-30T21:30:01.364Z,100.00
2022-10-30T21:35:02.965Z,100.00
2022-10-30T21:40:05.021Z,100.00
2022-10-30T21:45:07.277Z,100.00
2022-10-30T21:50:12.154Z,100.00
2022-10-30T21:55:14.363Z,100.00
2022-10-30T22:00:16.259Z,100.00
2022-10-30T22:05:18.893Z,100.00
2022-10-30T22:10:20.532Z,100.00
2022-10-30T22:15:22.059Z,100.00
2022-10-30T22:20:23.576Z,100.00
2022-10-30T22:25:25.099Z,100.00
2022-10-30T22:30:26.646Z,100.00
2022-10-30T22:35:37.747Z,100.00
2022-10-30T22:40:40.344Z,100.00
2022-10-30T22:45:41.854Z,100.00
2022-10-30T22:50:46.070Z,100.00
2022-10-30T22:55:47.567Z,100.00
2022-10-30T23:00:52.071Z,100.00
2022-10-30T23:05:59.541Z,100.00
2022-10-30T23:11:01.843Z,100.00
2022-10-30T23:16:06.596Z,100.00
2022-10-30T23:21:11.961Z,100.00
2022-10-30T23:26:18.715Z,100.00
2022-10-30T23:31:36.106Z,100.00
2022-10-30T23:36:37.908Z,100.00
2022-10-30T23:41:39.535Z,100.00
2022-10-30T23:46:41.546Z,100.00
2022-10-30T23:51:43.078Z,100.00
2022-10-30T23:56:44.596Z,100.00
